sensor_id;sensor_type;location;lat;lon;timestamp;P1;durP1;ratioP1;P2;durP2;ratioP2
58366;SDS011;57745;42.524;12.052;2023-06-10T00:01:12;5.65;;;4.10;;
58366;SDS011;57745;42.524;12.052;2023-06-10T00:03:37;5.90;;;5.28;;
58366;SDS011;57745;42.524;12.052;2023-06-10T00:06:03;7.65;;;4.18;;
58366;SDS011;57745;42.524;12.052;2023-06-10T00:08:28;6.88;;;4.35;;
58366;SDS011;57745;42.524;12.052;2023-06-10T00:10:56;8.50;;;5.00;;
58366;SDS011;57745;42.524;12.052;2023-06-10T00:13:22;8.75;;;4.57;;
58366;SDS011;57745;42.524;12.052;2023-06-10T00:15:47;7.18;;;4.15;;
58366;SDS011;57745;42.524;12.052;2023-06-10T00:18:12;6.05;;;4.28;;
58366;SDS011;57745;42.524;12.052;2023-06-10T00:20:38;6.63;;;4.32;;
58366;SDS011;57745;42.524;12.052;2023-06-10T00:23:04;5.88;;;4.18;;
58366;SDS011;57745;42.524;12.052;2023-06-10T00:25:31;8.40;;;4.45;;
58366;SDS011;57745;42.524;12.052;2023-06-10T00:27:58;5.25;;;3.90;;
58366;SDS011;57745;42.524;12.052;2023-06-10T00:30:23;10.50;;;5.50;;
58366;SDS011;57745;42.524;12.052;2023-06-10T00:32:49;10.18;;;6.18;;
58366;SDS011;57745;42.524;12.052;2023-06-10T00:35:14;11.00;;;5.72;;
58366;SDS011;57745;42.524;12.052;2023-06-10T00:37:39;12.90;;;5.50;;
58366;SDS011;57745;42.524;12.052;2023-06-10T00:40:05;12.13;;;6.22;;
58366;SDS011;57745;42.524;12.052;2023-06-10T00:42:33;10.13;;;5.85;;
58366;SDS011;57745;42.524;12.052;2023-06-10T00:44:58;9.40;;;5.80;;
58366;SDS011;57745;42.524;12.052;2023-06-10T00:47:25;8.40;;;5.50;;
58366;SDS011;57745;42.524;12.052;2023-06-10T00:49:51;11.27;;;6.13;;
58366;SDS011;57745;42.524;12.052;2023-06-10T00:52:17;7.10;;;4.82;;
58366;SDS011;57745;42.524;12.052;2023-06-10T00:54:45;8.40;;;4.80;;
58366;SDS011;57745;42.524;12.052;2023-06-10T00:57:11;8.52;;;5.00;;
58366;SDS011;57745;42.524;12.052;2023-06-10T00:59:39;8.68;;;5.40;;
58366;SDS011;57745;42.524;12.052;2023-06-10T01:02:05;7.53;;;5.35;;
58366;SDS011;57745;42.524;12.052;2023-06-10T01:04:32;6.18;;;4.80;;
58366;SDS011;57745;42.524;12.052;2023-06-10T01:10:06;8.02;;;5.00;;
58366;SDS011;57745;42.524;12.052;2023-06-10T01:12:43;7.90;;;4.78;;
58366;SDS011;57745;42.524;12.052;2023-06-10T01:15:16;8.95;;;4.88;;
58366;SDS011;57745;42.524;12.052;2023-06-10T01:20:30;10.75;;;4.53;;
58366;SDS011;57745;42.524;12.052;2023-06-10T01:23:00;9.13;;;4.65;;
58366;SDS011;57745;42.524;12.052;2023-06-10T01:25:28;6.80;;;4.55;;
58366;SDS011;57745;42.524;12.052;2023-06-10T01:28:02;7.38;;;4.07;;
58366;SDS011;57745;42.524;12.052;2023-06-10T01:30:46;8.63;;;5.30;;
58366;SDS011;57745;42.524;12.052;2023-06-10T01:33:21;9.45;;;5.55;;
58366;SDS011;57745;42.524;12.052;2023-06-10T01:35:52;8.23;;;5.28;;
58366;SDS011;57745;42.524;12.052;2023-06-10T01:38:18;10.70;;;4.78;;
58366;SDS011;57745;42.524;12.052;2023-06-10T01:40:45;6.88;;;4.65;;
58366;SDS011;57745;42.524;12.052;2023-06-10T01:43:11;7.10;;;4.35;;
58366;SDS011;57745;42.524;12.052;2023-06-10T01:45:37;7.85;;;4.72;;
58366;SDS011;57745;42.524;12.052;2023-06-10T01:48:02;6.20;;;4.40;;
58366;SDS011;57745;42.524;12.052;2023-06-10T01:50:28;7.03;;;4.82;;
58366;SDS011;57745;42.524;12.052;2023-06-10T01:52:53;7.32;;;4.25;;
58366;SDS011;57745;42.524;12.052;2023-06-10T01:55:18;9.45;;;4.43;;
58366;SDS011;57745;42.524;12.052;2023-06-10T01:57:44;10.98;;;4.80;;
58366;SDS011;57745;42.524;12.052;2023-06-10T02:00:10;7.13;;;4.57;;
58366;SDS011;57745;42.524;12.052;2023-06-10T02:02:36;9.45;;;5.63;;
58366;SDS011;57745;42.524;12.052;2023-06-10T02:05:01;9.43;;;5.20;;
58366;SDS011;57745;42.524;12.052;2023-06-10T02:07:26;11.40;;;4.65;;
58366;SDS011;57745;42.524;12.052;2023-06-10T02:09:52;10.35;;;4.82;;
58366;SDS011;57745;42.524;12.052;2023-06-10T02:12:17;6.13;;;4.50;;
58366;SDS011;57745;42.524;12.052;2023-06-10T02:14:43;6.75;;;4.60;;
58366;SDS011;57745;42.524;12.052;2023-06-10T02:17:08;7.00;;;3.95;;
58366;SDS011;57745;42.524;12.052;2023-06-10T02:19:37;6.60;;;3.85;;
58366;SDS011;57745;42.524;12.052;2023-06-10T02:22:07;6.75;;;3.65;;
58366;SDS011;57745;42.524;12.052;2023-06-10T02:24:33;9.32;;;4.10;;
58366;SDS011;57745;42.524;12.052;2023-06-10T02:27:00;6.57;;;4.05;;
58366;SDS011;57745;42.524;12.052;2023-06-10T02:29:26;6.68;;;3.53;;
58366;SDS011;57745;42.524;12.052;2023-06-10T02:31:51;6.60;;;4.07;;
58366;SDS011;57745;42.524;12.052;2023-06-10T02:34:18;8.40;;;3.78;;
58366;SDS011;57745;42.524;12.052;2023-06-10T02:36:43;8.30;;;4.30;;
58366;SDS011;57745;42.524;12.052;2023-06-10T02:39:09;5.95;;;4.07;;
58366;SDS011;57745;42.524;12.052;2023-06-10T02:41:34;9.80;;;4.75;;
58366;SDS011;57745;42.524;12.052;2023-06-10T02:44:00;6.57;;;4.07;;
58366;SDS011;57745;42.524;12.052;2023-06-10T02:46:26;6.13;;;4.40;;
58366;SDS011;57745;42.524;12.052;2023-06-10T02:48:53;8.55;;;4.03;;
58366;SDS011;57745;42.524;12.052;2023-06-10T02:51:19;7.55;;;3.78;;
58366;SDS011;57745;42.524;12.052;2023-06-10T02:53:45;7.30;;;4.50;;
58366;SDS011;57745;42.524;12.052;2023-06-10T02:56:11;6.47;;;4.05;;
58366;SDS011;57745;42.524;12.052;2023-06-10T02:58:37;7.00;;;4.20;;
58366;SDS011;57745;42.524;12.052;2023-06-10T03:01:03;8.48;;;4.05;;
58366;SDS011;57745;42.524;12.052;2023-06-10T03:03:28;7.82;;;3.72;;
58366;SDS011;57745;42.524;12.052;2023-06-10T03:05:55;9.45;;;4.20;;
58366;SDS011;57745;42.524;12.052;2023-06-10T03:08:21;11.85;;;4.40;;
58366;SDS011;57745;42.524;12.052;2023-06-10T03:10:47;6.85;;;4.40;;
58366;SDS011;57745;42.524;12.052;2023-06-10T03:13:12;7.72;;;4.40;;
58366;SDS011;57745;42.524;12.052;2023-06-10T03:15:39;8.55;;;4.55;;
58366;SDS011;57745;42.524;12.052;2023-06-10T03:18:05;5.70;;;3.88;;
58366;SDS011;57745;42.524;12.052;2023-06-10T03:20:32;11.10;;;4.90;;
58366;SDS011;57745;42.524;12.052;2023-06-10T03:23:03;11.82;;;4.40;;
58366;SDS011;57745;42.524;12.052;2023-06-10T03:25:31;7.80;;;3.88;;
58366;SDS011;57745;42.524;12.052;2023-06-10T03:27:57;6.50;;;4.47;;
58366;SDS011;57745;42.524;12.052;2023-06-10T03:30:23;8.15;;;4.75;;
58366;SDS011;57745;42.524;12.052;2023-06-10T03:32:48;6.93;;;4.15;;
58366;SDS011;57745;42.524;12.052;2023-06-10T03:35:14;9.38;;;5.00;;
58366;SDS011;57745;42.524;12.052;2023-06-10T03:37:40;7.07;;;4.10;;
58366;SDS011;57745;42.524;12.052;2023-06-10T03:40:05;6.13;;;4.60;;
58366;SDS011;57745;42.524;12.052;2023-06-10T03:42:33;8.65;;;4.72;;
58366;SDS011;57745;42.524;12.052;2023-06-10T03:44:59;6.60;;;4.28;;
58366;SDS011;57745;42.524;12.052;2023-06-10T03:47:24;8.27;;;4.63;;
58366;SDS011;57745;42.524;12.052;2023-06-10T03:49:50;7.95;;;4.57;;
58366;SDS011;57745;42.524;12.052;2023-06-10T03:52:15;7.47;;;4.32;;
58366;SDS011;57745;42.524;12.052;2023-06-10T03:54:41;10.38;;;4.50;;
58366;SDS011;57745;42.524;12.052;2023-06-10T03:57:06;7.35;;;4.70;;
58366;SDS011;57745;42.524;12.052;2023-06-10T03:59:32;8.80;;;4.45;;
58366;SDS011;57745;42.524;12.052;2023-06-10T04:01:57;7.63;;;4.60;;
58366;SDS011;57745;42.524;12.052;2023-06-10T04:04:23;7.35;;;5.03;;
58366;SDS011;57745;42.524;12.052;2023-06-10T04:06:49;8.45;;;5.30;;
58366;SDS011;57745;42.524;12.052;2023-06-10T04:09:15;6.68;;;5.10;;
58366;SDS011;57745;42.524;12.052;2023-06-10T04:11:41;9.50;;;4.80;;
58366;SDS011;57745;42.524;12.052;2023-06-10T04:14:07;7.68;;;4.75;;
58366;SDS011;57745;42.524;12.052;2023-06-10T04:16:33;8.90;;;4.85;;
58366;SDS011;57745;42.524;12.052;2023-06-10T04:18:59;10.57;;;4.55;;
58366;SDS011;57745;42.524;12.052;2023-06-10T04:21:25;7.10;;;4.18;;
58366;SDS011;57745;42.524;12.052;2023-06-10T04:23:51;10.77;;;5.60;;
58366;SDS011;57745;42.524;12.052;2023-06-10T04:26:17;10.07;;;5.57;;
58366;SDS011;57745;42.524;12.052;2023-06-10T04:28:43;6.05;;;4.65;;
58366;SDS011;57745;42.524;12.052;2023-06-10T04:31:08;10.07;;;4.80;;
58366;SDS011;57745;42.524;12.052;2023-06-10T04:33:35;8.30;;;4.90;;
58366;SDS011;57745;42.524;12.052;2023-06-10T04:36:01;11.43;;;4.88;;
58366;SDS011;57745;42.524;12.052;2023-06-10T04:38:26;9.07;;;5.30;;
58366;SDS011;57745;42.524;12.052;2023-06-10T04:40:52;10.00;;;4.88;;
58366;SDS011;57745;42.524;12.052;2023-06-10T04:43:17;11.15;;;5.30;;
58366;SDS011;57745;42.524;12.052;2023-06-10T04:45:43;12.32;;;5.18;;
58366;SDS011;57745;42.524;12.052;2023-06-10T04:48:10;6.43;;;4.88;;
58366;SDS011;57745;42.524;12.052;2023-06-10T04:50:36;9.10;;;4.80;;
58366;SDS011;57745;42.524;12.052;2023-06-10T04:53:02;8.13;;;4.85;;
58366;SDS011;57745;42.524;12.052;2023-06-10T04:55:28;10.10;;;5.22;;
58366;SDS011;57745;42.524;12.052;2023-06-10T04:57:54;9.88;;;5.43;;
58366;SDS011;57745;42.524;12.052;2023-06-10T05:00:19;11.73;;;5.95;;
58366;SDS011;57745;42.524;12.052;2023-06-10T05:02:45;6.68;;;4.85;;
58366;SDS011;57745;42.524;12.052;2023-06-10T05:05:14;9.23;;;5.15;;
58366;SDS011;57745;42.524;12.052;2023-06-10T05:07:43;9.45;;;5.47;;
58366;SDS011;57745;42.524;12.052;2023-06-10T05:10:09;9.23;;;5.43;;
58366;SDS011;57745;42.524;12.052;2023-06-10T05:12:34;11.07;;;5.55;;
58366;SDS011;57745;42.524;12.052;2023-06-10T05:15:00;7.57;;;5.43;;
58366;SDS011;57745;42.524;12.052;2023-06-10T05:17:26;10.25;;;5.90;;
58366;SDS011;57745;42.524;12.052;2023-06-10T05:19:52;7.75;;;5.07;;
58366;SDS011;57745;42.524;12.052;2023-06-10T05:22:18;9.57;;;5.38;;
58366;SDS011;57745;42.524;12.052;2023-06-10T05:24:43;8.77;;;4.90;;
58366;SDS011;57745;42.524;12.052;2023-06-10T05:27:09;12.82;;;6.25;;
58366;SDS011;57745;42.524;12.052;2023-06-10T05:29:35;10.50;;;6.50;;
58366;SDS011;57745;42.524;12.052;2023-06-10T05:32:01;12.23;;;5.85;;
58366;SDS011;57745;42.524;12.052;2023-06-10T05:34:30;12.35;;;5.57;;
58366;SDS011;57745;42.524;12.052;2023-06-10T05:36:56;8.50;;;4.88;;
58366;SDS011;57745;42.524;12.052;2023-06-10T05:39:22;9.77;;;5.75;;
58366;SDS011;57745;42.524;12.052;2023-06-10T05:41:47;8.10;;;5.43;;
58366;SDS011;57745;42.524;12.052;2023-06-10T05:44:12;8.35;;;5.10;;
58366;SDS011;57745;42.524;12.052;2023-06-10T05:46:38;7.10;;;4.63;;
58366;SDS011;57745;42.524;12.052;2023-06-10T05:49:03;9.15;;;5.13;;
58366;SDS011;57745;42.524;12.052;2023-06-10T05:51:29;11.45;;;5.72;;
58366;SDS011;57745;42.524;12.052;2023-06-10T05:53:54;11.82;;;5.40;;
58366;SDS011;57745;42.524;12.052;2023-06-10T05:56:20;8.32;;;5.20;;
58366;SDS011;57745;42.524;12.052;2023-06-10T05:58:47;12.70;;;5.75;;
58366;SDS011;57745;42.524;12.052;2023-06-10T06:01:13;10.30;;;5.18;;
58366;SDS011;57745;42.524;12.052;2023-06-10T06:03:38;10.63;;;6.20;;
58366;SDS011;57745;42.524;12.052;2023-06-10T06:06:04;11.50;;;5.50;;
58366;SDS011;57745;42.524;12.052;2023-06-10T06:08:30;10.70;;;5.10;;
58366;SDS011;57745;42.524;12.052;2023-06-10T06:10:55;9.85;;;5.55;;
58366;SDS011;57745;42.524;12.052;2023-06-10T06:13:21;9.35;;;5.43;;
58366;SDS011;57745;42.524;12.052;2023-06-10T06:15:46;11.98;;;5.65;;
58366;SDS011;57745;42.524;12.052;2023-06-10T06:18:12;10.23;;;5.28;;
58366;SDS011;57745;42.524;12.052;2023-06-10T06:20:37;14.35;;;5.18;;
58366;SDS011;57745;42.524;12.052;2023-06-10T06:23:02;13.48;;;5.22;;
58366;SDS011;57745;42.524;12.052;2023-06-10T06:25:29;10.27;;;5.38;;
58366;SDS011;57745;42.524;12.052;2023-06-10T06:27:54;9.32;;;5.20;;
58366;SDS011;57745;42.524;12.052;2023-06-10T06:30:19;9.02;;;5.03;;
58366;SDS011;57745;42.524;12.052;2023-06-10T06:32:45;8.93;;;5.18;;
58366;SDS011;57745;42.524;12.052;2023-06-10T06:35:10;7.28;;;5.07;;
58366;SDS011;57745;42.524;12.052;2023-06-10T06:37:36;18.00;;;7.35;;
58366;SDS011;57745;42.524;12.052;2023-06-10T06:40:01;9.10;;;6.22;;
58366;SDS011;57745;42.524;12.052;2023-06-10T06:42:27;11.60;;;5.85;;
58366;SDS011;57745;42.524;12.052;2023-06-10T06:44:53;10.52;;;5.68;;
58366;SDS011;57745;42.524;12.052;2023-06-10T06:47:18;15.85;;;5.85;;
58366;SDS011;57745;42.524;12.052;2023-06-10T06:49:47;9.57;;;5.25;;
58366;SDS011;57745;42.524;12.052;2023-06-10T06:52:13;9.77;;;5.15;;
58366;SDS011;57745;42.524;12.052;2023-06-10T06:54:39;11.30;;;5.70;;
58366;SDS011;57745;42.524;12.052;2023-06-10T06:57:05;7.97;;;4.45;;
58366;SDS011;57745;42.524;12.052;2023-06-10T06:59:32;9.57;;;5.10;;
58366;SDS011;57745;42.524;12.052;2023-06-10T07:01:57;9.60;;;4.40;;
58366;SDS011;57745;42.524;12.052;2023-06-10T07:04:23;10.77;;;4.60;;
58366;SDS011;57745;42.524;12.052;2023-06-10T07:06:48;7.65;;;4.78;;
58366;SDS011;57745;42.524;12.052;2023-06-10T07:09:14;7.97;;;4.70;;
58366;SDS011;57745;42.524;12.052;2023-06-10T07:11:40;11.98;;;4.90;;
58366;SDS011;57745;42.524;12.052;2023-06-10T07:14:06;9.85;;;4.68;;
58366;SDS011;57745;42.524;12.052;2023-06-10T07:16:32;12.48;;;5.45;;
58366;SDS011;57745;42.524;12.052;2023-06-10T07:18:57;7.97;;;5.10;;
58366;SDS011;57745;42.524;12.052;2023-06-10T07:21:23;11.15;;;4.93;;
58366;SDS011;57745;42.524;12.052;2023-06-10T07:23:48;11.30;;;5.57;;
58366;SDS011;57745;42.524;12.052;2023-06-10T07:26:14;9.02;;;5.15;;
58366;SDS011;57745;42.524;12.052;2023-06-10T07:28:40;6.68;;;4.90;;
58366;SDS011;57745;42.524;12.052;2023-06-10T07:31:06;9.20;;;4.45;;
58366;SDS011;57745;42.524;12.052;2023-06-10T07:33:32;11.32;;;5.05;;
58366;SDS011;57745;42.524;12.052;2023-06-10T07:35:58;9.15;;;4.97;;
58366;SDS011;57745;42.524;12.052;2023-06-10T07:38:24;13.00;;;5.00;;
58366;SDS011;57745;42.524;12.052;2023-06-10T07:40:52;6.63;;;4.47;;
58366;SDS011;57745;42.524;12.052;2023-06-10T07:43:18;11.18;;;5.22;;
58366;SDS011;57745;42.524;12.052;2023-06-10T07:45:44;13.43;;;4.82;;
58366;SDS011;57745;42.524;12.052;2023-06-10T07:48:10;14.98;;;4.43;;
58366;SDS011;57745;42.524;12.052;2023-06-10T07:50:36;14.75;;;4.97;;
58366;SDS011;57745;42.524;12.052;2023-06-10T07:53:01;9.40;;;4.47;;
58366;SDS011;57745;42.524;12.052;2023-06-10T07:55:27;12.02;;;4.72;;
58366;SDS011;57745;42.524;12.052;2023-06-10T07:57:53;13.57;;;6.32;;
58366;SDS011;57745;42.524;12.052;2023-06-10T08:00:19;12.50;;;5.70;;
58366;SDS011;57745;42.524;12.052;2023-06-10T08:02:45;11.75;;;6.10;;
58366;SDS011;57745;42.524;12.052;2023-06-10T08:05:10;8.45;;;5.13;;
58366;SDS011;57745;42.524;12.052;2023-06-10T08:07:36;13.55;;;4.85;;
58366;SDS011;57745;42.524;12.052;2023-06-10T08:10:02;8.63;;;4.80;;
58366;SDS011;57745;42.524;12.052;2023-06-10T08:12:29;8.77;;;5.18;;
58366;SDS011;57745;42.524;12.052;2023-06-10T08:14:54;9.65;;;4.78;;
58366;SDS011;57745;42.524;12.052;2023-06-10T08:17:20;9.35;;;4.97;;
58366;SDS011;57745;42.524;12.052;2023-06-10T08:19:46;10.60;;;4.68;;
58366;SDS011;57745;42.524;12.052;2023-06-10T08:22:12;8.27;;;4.30;;
58366;SDS011;57745;42.524;12.052;2023-06-10T08:24:37;13.32;;;4.82;;
58366;SDS011;57745;42.524;12.052;2023-06-10T08:27:03;12.30;;;4.57;;
58366;SDS011;57745;42.524;12.052;2023-06-10T08:29:29;9.20;;;4.53;;
58366;SDS011;57745;42.524;12.052;2023-06-10T08:31:56;12.48;;;4.55;;
58366;SDS011;57745;42.524;12.052;2023-06-10T08:34:21;6.93;;;4.28;;
58366;SDS011;57745;42.524;12.052;2023-06-10T08:36:47;8.90;;;4.38;;
58366;SDS011;57745;42.524;12.052;2023-06-10T08:39:12;12.02;;;4.53;;
58366;SDS011;57745;42.524;12.052;2023-06-10T08:41:40;8.13;;;4.38;;
58366;SDS011;57745;42.524;12.052;2023-06-10T08:44:10;12.43;;;4.80;;
58366;SDS011;57745;42.524;12.052;2023-06-10T08:46:44;9.40;;;4.78;;
58366;SDS011;57745;42.524;12.052;2023-06-10T08:49:10;8.60;;;4.13;;
58366;SDS011;57745;42.524;12.052;2023-06-10T08:51:43;11.10;;;4.20;;
58366;SDS011;57745;42.524;12.052;2023-06-10T08:54:11;6.57;;;3.75;;
58366;SDS011;57745;42.524;12.052;2023-06-10T08:56:44;11.15;;;4.50;;
58366;SDS011;57745;42.524;12.052;2023-06-10T08:59:13;11.93;;;6.45;;
58366;SDS011;57745;42.524;12.052;2023-06-10T09:01:41;7.88;;;5.22;;
58366;SDS011;57745;42.524;12.052;2023-06-10T09:04:08;10.50;;;5.40;;
58366;SDS011;57745;42.524;12.052;2023-06-10T09:06:33;8.82;;;4.75;;
58366;SDS011;57745;42.524;12.052;2023-06-10T09:09:00;10.38;;;4.43;;
58366;SDS011;57745;42.524;12.052;2023-06-10T09:11:27;10.40;;;4.38;;
58366;SDS011;57745;42.524;12.052;2023-06-10T09:13:53;7.05;;;3.53;;
58366;SDS011;57745;42.524;12.052;2023-06-10T09:16:19;7.60;;;3.67;;
58366;SDS011;57745;42.524;12.052;2023-06-10T09:18:44;9.55;;;3.70;;
58366;SDS011;57745;42.524;12.052;2023-06-10T09:21:10;9.70;;;3.72;;
58366;SDS011;57745;42.524;12.052;2023-06-10T09:23:36;9.10;;;3.90;;
58366;SDS011;57745;42.524;12.052;2023-06-10T09:26:02;9.18;;;3.58;;
58366;SDS011;57745;42.524;12.052;2023-06-10T09:28:30;9.32;;;3.65;;
58366;SDS011;57745;42.524;12.052;2023-06-10T09:31:02;5.70;;;3.85;;
58366;SDS011;57745;42.524;12.052;2023-06-10T09:33:29;7.00;;;3.63;;
58366;SDS011;57745;42.524;12.052;2023-06-10T09:35:55;8.02;;;3.63;;
58366;SDS011;57745;42.524;12.052;2023-06-10T09:38:22;5.95;;;3.88;;
58366;SDS011;57745;42.524;12.052;2023-06-10T09:40:51;8.02;;;3.83;;
58366;SDS011;57745;42.524;12.052;2023-06-10T09:43:17;6.45;;;3.40;;
58366;SDS011;57745;42.524;12.052;2023-06-10T09:45:44;6.97;;;3.83;;
58366;SDS011;57745;42.524;12.052;2023-06-10T09:48:09;9.75;;;3.72;;
58366;SDS011;57745;42.524;12.052;2023-06-10T09:50:41;9.55;;;4.85;;
58366;SDS011;57745;42.524;12.052;2023-06-10T09:53:08;10.80;;;3.75;;
58366;SDS011;57745;42.524;12.052;2023-06-10T09:55:36;6.65;;;3.92;;
58366;SDS011;57745;42.524;12.052;2023-06-10T09:58:03;7.80;;;4.57;;
58366;SDS011;57745;42.524;12.052;2023-06-10T10:00:31;9.88;;;5.38;;
58366;SDS011;57745;42.524;12.052;2023-06-10T10:02:58;6.78;;;4.22;;
58366;SDS011;57745;42.524;12.052;2023-06-10T10:05:23;6.40;;;4.97;;
58366;SDS011;57745;42.524;12.052;2023-06-10T10:07:49;8.73;;;4.15;;
58366;SDS011;57745;42.524;12.052;2023-06-10T10:10:15;8.55;;;4.43;;
58366;SDS011;57745;42.524;12.052;2023-06-10T10:12:42;6.75;;;4.20;;
58366;SDS011;57745;42.524;12.052;2023-06-10T10:15:11;10.45;;;4.53;;
58366;SDS011;57745;42.524;12.052;2023-06-10T10:17:37;9.88;;;4.57;;
58366;SDS011;57745;42.524;12.052;2023-06-10T10:20:07;10.55;;;3.67;;
58366;SDS011;57745;42.524;12.052;2023-06-10T10:22:40;8.38;;;4.68;;
58366;SDS011;57745;42.524;12.052;2023-06-10T10:25:10;8.95;;;3.50;;
58366;SDS011;57745;42.524;12.052;2023-06-10T10:27:44;6.60;;;3.58;;
58366;SDS011;57745;42.524;12.052;2023-06-10T10:30:14;9.07;;;3.47;;
58366;SDS011;57745;42.524;12.052;2023-06-10T10:35:08;7.28;;;3.17;;
58366;SDS011;57745;42.524;12.052;2023-06-10T10:37:37;7.18;;;3.97;;
58366;SDS011;57745;42.524;12.052;2023-06-10T10:40:04;11.00;;;3.63;;
58366;SDS011;57745;42.524;12.052;2023-06-10T10:42:31;7.53;;;3.50;;
58366;SDS011;57745;42.524;12.052;2023-06-10T10:44:57;11.55;;;3.53;;
58366;SDS011;57745;42.524;12.052;2023-06-10T10:47:25;6.43;;;3.10;;
58366;SDS011;57745;42.524;12.052;2023-06-10T10:49:56;8.10;;;3.33;;
58366;SDS011;57745;42.524;12.052;2023-06-10T10:52:25;9.48;;;3.28;;
58366;SDS011;57745;42.524;12.052;2023-06-10T10:54:52;6.25;;;3.22;;
58366;SDS011;57745;42.524;12.052;2023-06-10T10:57:23;5.40;;;3.10;;
58366;SDS011;57745;42.524;12.052;2023-06-10T11:02:17;6.82;;;3.22;;
58366;SDS011;57745;42.524;12.052;2023-06-10T11:04:44;8.85;;;3.58;;
58366;SDS011;57745;42.524;12.052;2023-06-10T11:07:13;4.95;;;3.53;;
58366;SDS011;57745;42.524;12.052;2023-06-10T11:10:02;5.55;;;2.88;;
58366;SDS011;57745;42.524;12.052;2023-06-10T11:12:53;7.72;;;3.47;;
58366;SDS011;57745;42.524;12.052;2023-06-10T11:15:20;7.78;;;3.13;;
58366;SDS011;57745;42.524;12.052;2023-06-10T11:20:44;6.03;;;3.80;;
58366;SDS011;57745;42.524;12.052;2023-06-10T11:29:03;7.25;;;3.00;;
58366;SDS011;57745;42.524;12.052;2023-06-10T11:31:30;7.90;;;3.53;;
58366;SDS011;57745;42.524;12.052;2023-06-10T11:34:03;6.00;;;4.15;;
58366;SDS011;57745;42.524;12.052;2023-06-10T11:36:30;6.68;;;3.72;;
58366;SDS011;57745;42.524;12.052;2023-06-10T11:39:00;5.65;;;3.88;;
58366;SDS011;57745;42.524;12.052;2023-06-10T11:41:27;5.78;;;3.30;;
58366;SDS011;57745;42.524;12.052;2023-06-10T11:43:54;8.45;;;3.25;;
58366;SDS011;57745;42.524;12.052;2023-06-10T11:46:23;8.07;;;3.13;;
58366;SDS011;57745;42.524;12.052;2023-06-10T11:48:52;7.22;;;3.03;;
58366;SDS011;57745;42.524;12.052;2023-06-10T11:51:19;7.63;;;3.00;;
58366;SDS011;57745;42.524;12.052;2023-06-10T11:53:48;4.30;;;3.22;;
58366;SDS011;57745;42.524;12.052;2023-06-10T11:56:27;8.85;;;3.50;;
58366;SDS011;57745;42.524;12.052;2023-06-10T11:58:54;12.95;;;4.63;;
58366;SDS011;57745;42.524;12.052;2023-06-10T12:01:29;10.40;;;3.72;;
58366;SDS011;57745;42.524;12.052;2023-06-10T12:04:04;13.75;;;4.57;;
58366;SDS011;57745;42.524;12.052;2023-06-10T12:09:17;11.57;;;3.95;;
58366;SDS011;57745;42.524;12.052;2023-06-10T12:11:57;8.80;;;4.45;;
58366;SDS011;57745;42.524;12.052;2023-06-10T12:19:57;10.45;;;3.53;;
58366;SDS011;57745;42.524;12.052;2023-06-10T12:22:23;8.88;;;3.88;;
58366;SDS011;57745;42.524;12.052;2023-06-10T12:25:00;7.22;;;3.22;;
58366;SDS011;57745;42.524;12.052;2023-06-10T12:27:31;6.35;;;3.58;;
58366;SDS011;57745;42.524;12.052;2023-06-10T12:30:00;7.95;;;3.80;;
58366;SDS011;57745;42.524;12.052;2023-06-10T12:32:43;6.73;;;3.93;;
58366;SDS011;57745;42.524;12.052;2023-06-10T12:35:11;6.68;;;4.05;;
58366;SDS011;57745;42.524;12.052;2023-06-10T12:37:56;7.90;;;3.50;;
58366;SDS011;57745;42.524;12.052;2023-06-10T12:42:56;7.32;;;3.65;;
58366;SDS011;57745;42.524;12.052;2023-06-10T12:45:29;5.90;;;3.30;;
58366;SDS011;57745;42.524;12.052;2023-06-10T12:48:05;6.05;;;3.58;;
58366;SDS011;57745;42.524;12.052;2023-06-10T12:50:37;5.30;;;3.00;;
58366;SDS011;57745;42.524;12.052;2023-06-10T12:53:09;8.23;;;3.22;;
58366;SDS011;57745;42.524;12.052;2023-06-10T12:55:39;7.35;;;3.20;;
58366;SDS011;57745;42.524;12.052;2023-06-10T12:58:05;6.50;;;3.22;;
58366;SDS011;57745;42.524;12.052;2023-06-10T13:00:30;9.35;;;3.70;;
58366;SDS011;57745;42.524;12.052;2023-06-10T13:02:56;6.85;;;3.60;;
58366;SDS011;57745;42.524;12.052;2023-06-10T13:05:23;4.47;;;3.13;;
58366;SDS011;57745;42.524;12.052;2023-06-10T13:07:48;6.40;;;3.45;;
58366;SDS011;57745;42.524;12.052;2023-06-10T13:10:14;7.90;;;3.15;;
58366;SDS011;57745;42.524;12.052;2023-06-10T13:12:41;7.90;;;3.30;;
58366;SDS011;57745;42.524;12.052;2023-06-10T13:15:07;4.88;;;2.40;;
58366;SDS011;57745;42.524;12.052;2023-06-10T13:17:33;3.92;;;2.83;;
58366;SDS011;57745;42.524;12.052;2023-06-10T13:19:59;8.13;;;2.85;;
58366;SDS011;57745;42.524;12.052;2023-06-10T13:22:25;4.47;;;2.58;;
58366;SDS011;57745;42.524;12.052;2023-06-10T13:24:52;7.28;;;2.70;;
58366;SDS011;57745;42.524;12.052;2023-06-10T13:27:17;3.47;;;2.85;;
58366;SDS011;57745;42.524;12.052;2023-06-10T13:29:42;5.80;;;2.40;;
58366;SDS011;57745;42.524;12.052;2023-06-10T13:32:08;6.00;;;2.95;;
58366;SDS011;57745;42.524;12.052;2023-06-10T13:34:33;5.70;;;2.85;;
58366;SDS011;57745;42.524;12.052;2023-06-10T13:37:01;5.15;;;3.10;;
58366;SDS011;57745;42.524;12.052;2023-06-10T13:39:29;5.72;;;2.63;;
58366;SDS011;57745;42.524;12.052;2023-06-10T13:41:54;11.90;;;3.38;;
58366;SDS011;57745;42.524;12.052;2023-06-10T13:44:20;7.22;;;2.83;;
58366;SDS011;57745;42.524;12.052;2023-06-10T13:46:45;5.63;;;2.60;;
58366;SDS011;57745;42.524;12.052;2023-06-10T13:49:11;6.20;;;2.40;;
58366;SDS011;57745;42.524;12.052;2023-06-10T13:51:36;5.70;;;3.30;;
58366;SDS011;57745;42.524;12.052;2023-06-10T13:54:02;6.85;;;2.95;;
58366;SDS011;57745;42.524;12.052;2023-06-10T13:56:27;6.15;;;3.08;;
58366;SDS011;57745;42.524;12.052;2023-06-10T13:58:53;4.45;;;3.08;;
58366;SDS011;57745;42.524;12.052;2023-06-10T14:01:18;6.43;;;3.10;;
58366;SDS011;57745;42.524;12.052;2023-06-10T14:03:44;7.93;;;3.78;;
58366;SDS011;57745;42.524;12.052;2023-06-10T14:06:10;11.65;;;4.00;;
58366;SDS011;57745;42.524;12.052;2023-06-10T14:08:38;5.20;;;3.15;;
58366;SDS011;57745;42.524;12.052;2023-06-10T14:11:03;10.38;;;3.40;;
58366;SDS011;57745;42.524;12.052;2023-06-10T14:13:29;6.45;;;3.63;;
58366;SDS011;57745;42.524;12.052;2023-06-10T14:15:54;7.75;;;3.50;;
58366;SDS011;57745;42.524;12.052;2023-06-10T14:18:20;8.75;;;3.50;;
58366;SDS011;57745;42.524;12.052;2023-06-10T14:20:45;10.95;;;3.10;;
58366;SDS011;57745;42.524;12.052;2023-06-10T14:23:11;6.18;;;2.95;;
58366;SDS011;57745;42.524;12.052;2023-06-10T14:25:36;8.95;;;3.50;;
58366;SDS011;57745;42.524;12.052;2023-06-10T14:28:02;9.43;;;3.78;;
58366;SDS011;57745;42.524;12.052;2023-06-10T14:30:27;6.50;;;3.13;;
58366;SDS011;57745;42.524;12.052;2023-06-10T14:32:53;10.18;;;3.15;;
58366;SDS011;57745;42.524;12.052;2023-06-10T14:35:18;10.60;;;3.17;;
58366;SDS011;57745;42.524;12.052;2023-06-10T14:37:45;6.38;;;2.80;;
58366;SDS011;57745;42.524;12.052;2023-06-10T14:40:10;5.80;;;3.13;;
58366;SDS011;57745;42.524;12.052;2023-06-10T14:42:36;7.97;;;3.25;;
58366;SDS011;57745;42.524;12.052;2023-06-10T14:45:01;11.93;;;4.03;;
58366;SDS011;57745;42.524;12.052;2023-06-10T14:47:27;8.85;;;3.33;;
58366;SDS011;57745;42.524;12.052;2023-06-10T14:49:52;8.32;;;3.13;;
58366;SDS011;57745;42.524;12.052;2023-06-10T14:52:18;6.53;;;3.22;;
58366;SDS011;57745;42.524;12.052;2023-06-10T14:54:44;5.32;;;2.63;;
58366;SDS011;57745;42.524;12.052;2023-06-10T14:57:09;4.25;;;2.50;;
58366;SDS011;57745;42.524;12.052;2023-06-10T14:59:35;6.35;;;2.85;;